Beaver Creek, Illinois
Current Conditions -  °F | °C
As of 6:15 PM on Friday 28 Nov 2014 (Local Time) from K3LF Reporting Station
Clear Clear  
Wind Chill: -1°   Ceiling: Unl
Heat Index:   Visibility: 10mi
Dew Point:   Wind: 16mph
Humidity: 76%   Direction: 150°SSE
Pressure: 29.95"   Gusts: NA
Location:  38.895°N, 89.397°W
Report Text: K3LF 290015Z AUTO 15014KT 10SM CLR 04/00 A2995 RMK AO2 T00380000
Loading
Personal Weather Stations






























Interactive Weather Map New forecast layout! Learn more

10-Day Weather Forecast

Advertisements
Track Severe Weather on mobile